Time;durP1;ratioP1;P1;durP2;ratioP2;P2;SDS_P1;SDS_P2;PMS_P1;PMS_P2;Temp;Humidity;BMP_temperature;BMP_pressure;BME280_temperature;BME280_humidity;BME280_pressure;Samples;Min_cycle;Max_cycle;Signal;HPM_P1;HPM_P2
2022/09/25 00:03:09;;;;;;;810.08;79.72;;;;;14.30;95953.00;;;;8305051;28;20231;-77
2022/09/25 00:07:12;;;;;;;642.30;70.65;;;;;14.30;95951.00;;;;8309116;28;20253;-77
2022/09/25 00:11:18;;;;;;;460.75;62.08;;;;;14.30;95950.00;;;;8306827;28;20579;-74
2022/09/25 00:15:23;;;;;;;1158.68;97.85;;;;;14.30;95950.00;;;;8324310;28;20220;-77
2022/09/25 00:23:47;;;;;;;745.75;74.05;;;;;14.30;95946.00;;;;8310670;28;20228;-77
2022/09/25 00:27:54;;;;;;;1080.10;95.55;;;;;14.30;95940.00;;;;8329075;28;20510;-76
2022/09/25 00:31:59;;;;;;;1029.78;88.53;;;;;14.30;95936.00;;;;8328944;28;20236;-77
2022/09/25 00:36:03;;;;;;;1119.88;92.90;;;;;14.40;95934.00;;;;8339828;28;20277;-78
2022/09/25 00:40:08;;;;;;;1329.35;105.30;;;;;14.30;95928.00;;;;8316946;28;20236;-76
2022/09/25 00:44:56;;;;;;;1360.40;108.40;;;;;14.20;95924.00;;;;8316319;28;20571;-76
2022/09/25 00:49:03;;;;;;;1279.93;109.55;;;;;14.20;95922.00;;;;8207876;28;20231;-77
2022/09/25 00:53:11;;;;;;;1516.28;114.10;;;;;14.20;95920.00;;;;8206749;28;20755;-76
2022/09/25 00:57:18;;;;;;;868.20;91.97;;;;;14.20;95917.00;;;;8210561;28;20231;-76
2022/09/25 01:01:22;;;;;;;682.58;76.88;;;;;14.20;95911.00;;;;8198030;28;20240;-75
2022/09/25 01:05:29;;;;;;;1087.80;99.28;;;;;14.20;95915.00;;;;8199120;28;21089;-76
2022/09/25 01:09:32;;;;;;;1053.60;96.72;;;;;14.20;95920.00;;;;8198098;28;21067;-77
2022/09/25 01:13:37;;;;;;;436.98;58.60;;;;;14.20;95920.00;;;;8205271;28;20231;-75
2022/09/25 01:17:49;;;;;;;840.25;76.97;;;;;14.20;95916.00;;;;8201219;28;20234;-75
2022/09/25 01:21:58;;;;;;;852.85;79.05;;;;;14.10;95914.00;;;;8198485;28;20223;-76
2022/09/25 01:26:19;;;;;;;858.47;78.55;;;;;14.10;95918.00;;;;8325882;28;20252;-76
2022/09/25 01:30:24;;;;;;;723.83;71.65;;;;;14.00;95916.00;;;;8325818;28;20325;-76
2022/09/25 01:34:33;;;;;;;1189.55;91.43;;;;;14.00;95918.00;;;;8319268;28;20665;-76
2022/09/25 01:38:48;;;;;;;832.20;73.97;;;;;14.00;95912.00;;;;8310891;28;20232;-74
2022/09/25 01:42:55;;;;;;;1216.57;89.65;;;;;14.00;95914.00;;;;8305523;28;20225;-75
2022/09/25 01:47:13;;;;;;;1244.10;87.88;;;;;13.90;95915.00;;;;8306976;28;20231;-78
2022/09/25 01:51:29;;;;;;;1278.40;89.55;;;;;13.90;95916.00;;;;8352250;28;20214;-77
2022/09/25 01:55:38;;;;;;;1375.20;94.07;;;;;13.90;95913.00;;;;8339419;28;20227;-76
2022/09/25 01:59:46;;;;;;;796.40;72.18;;;;;13.90;95906.00;;;;8346964;28;20227;-76
2022/09/25 02:03:56;;;;;;;609.00;63.25;;;;;13.90;95896.00;;;;8340829;28;20668;-77
2022/09/25 02:08:03;;;;;;;671.45;66.13;;;;;13.90;95892.00;;;;8307863;28;20591;-77
2022/09/25 02:12:12;;;;;;;475.85;54.95;;;;;13.90;95890.00;;;;8344560;28;20230;-81
2022/09/25 02:16:18;;;;;;;631.80;62.35;;;;;13.80;95889.00;;;;8330428;28;20231;-80
2022/09/25 02:20:33;;;;;;;423.65;55.58;;;;;13.80;95898.00;;;;8305985;28;20236;-79
2022/09/25 02:24:44;;;;;;;440.88;55.03;;;;;13.80;95899.00;;;;8335197;28;20290;-79
2022/09/25 02:28:47;;;;;;;381.88;51.72;;;;;13.90;95891.00;;;;8345594;28;20578;-78
2022/09/25 02:32:50;;;;;;;382.55;52.53;;;;;14.00;95893.00;;;;8345113;28;20246;-78
2022/09/25 02:36:55;;;;;;;463.02;54.40;;;;;14.10;95902.00;;;;8338579;28;20224;-78
2022/09/25 02:41:06;;;;;;;516.10;57.45;;;;;14.10;95901.00;;;;8341843;28;20255;-78
2022/09/25 02:45:28;;;;;;;498.10;55.92;;;;;14.10;95903.00;;;;8345149;28;20223;-79
2022/09/25 02:49:40;;;;;;;418.30;54.33;;;;;14.10;95901.00;;;;8337547;28;20235;-78
2022/09/25 02:53:51;;;;;;;524.58;56.35;;;;;14.20;95900.00;;;;8343699;28;20567;-79
2022/09/25 02:57:58;;;;;;;372.90;48.80;;;;;14.10;95903.00;;;;8339228;28;20263;-79
2022/09/25 03:02:02;;;;;;;508.80;53.35;;;;;14.10;95909.00;;;;8350363;23;20228;-79
2022/09/25 03:06:07;;;;;;;492.40;53.95;;;;;14.10;95901.00;;;;8279964;28;20278;-80
2022/09/25 03:10:12;;;;;;;420.58;47.25;;;;;14.10;95897.00;;;;8323111;28;20235;-79
2022/09/25 03:14:15;;;;;;;283.10;43.47;;;;;14.10;95894.00;;;;8351363;28;20228;-79
2022/09/25 03:18:19;;;;;;;282.77;40.08;;;;;14.10;95899.00;;;;8338488;28;20238;-79
2022/09/25 03:22:22;;;;;;;230.02;37.90;;;;;14.00;95897.00;;;;8350025;28;20228;-78
2022/09/25 03:26:27;;;;;;;242.95;38.75;;;;;14.00;95898.00;;;;8348757;28;20579;-79
2022/09/25 03:30:30;;;;;;;239.80;38.97;;;;;14.00;95903.00;;;;8335331;28;20229;-79
2022/09/25 03:34:33;;;;;;;243.38;39.60;;;;;13.90;95900.00;;;;8347727;28;20240;-78
2022/09/25 03:38:37;;;;;;;210.40;36.80;;;;;14.00;95896.00;;;;8356245;28;20327;-80
2022/09/25 03:42:42;;;;;;;255.23;37.53;;;;;14.00;95889.00;;;;8345888;28;20282;-81
2022/09/25 03:46:45;;;;;;;246.88;39.25;;;;;13.90;95897.00;;;;8331533;28;20229;-79
2022/09/25 03:50:49;;;;;;;218.55;36.03;;;;;13.90;95893.00;;;;8347470;28;20285;-80
2022/09/25 03:54:52;;;;;;;279.52;39.80;;;;;13.80;95884.00;;;;8356866;28;20221;-78
2022/09/25 03:58:58;;;;;;;292.88;40.33;;;;;13.80;95875.00;;;;8336505;28;20605;-78
2022/09/25 04:03:00;;;;;;;291.80;41.47;;;;;13.70;95881.00;;;;8330715;28;20594;-78
2022/09/25 04:07:05;;;;;;;264.35;37.95;;;;;13.80;95876.00;;;;8308730;28;20277;-78
2022/09/25 04:11:08;;;;;;;236.85;39.05;;;;;13.80;95883.00;;;;8302488;28;20221;-79
2022/09/25 04:15:12;;;;;;;266.17;40.80;;;;;13.80;95882.00;;;;8316127;28;20248;-77
2022/09/25 04:19:16;;;;;;;221.07;37.33;;;;;13.80;95879.00;;;;8304864;28;20282;-79
2022/09/25 04:23:19;;;;;;;263.10;39.35;;;;;13.80;95884.00;;;;8309293;28;20225;-79
2022/09/25 04:27:23;;;;;;;278.33;40.53;;;;;13.80;95879.00;;;;8307232;28;20232;-75
2022/09/25 04:31:28;;;;;;;272.58;39.85;;;;;13.80;95882.00;;;;8300985;28;20264;-80
2022/09/25 04:35:31;;;;;;;240.98;37.15;;;;;13.80;95871.00;;;;8306903;28;20616;-79
2022/09/25 04:39:34;;;;;;;239.18;39.03;;;;;13.90;95872.00;;;;8295919;28;20274;-80
2022/09/25 04:43:38;;;;;;;252.45;38.40;;;;;13.90;95871.00;;;;8309917;28;20237;-79
2022/09/25 04:47:43;;;;;;;348.73;41.97;;;;;13.90;95859.00;;;;8317399;28;20225;-81
2022/09/25 04:51:46;;;;;;;271.00;39.42;;;;;13.90;95857.00;;;;8305472;28;20252;-80
2022/09/25 04:55:49;;;;;;;279.33;39.45;;;;;13.90;95864.00;;;;8298812;28;20225;-78
2022/09/25 04:59:52;;;;;;;448.38;49.10;;;;;13.90;95861.00;;;;8306474;28;20272;-79
2022/09/25 05:03:56;;;;;;;387.20;46.42;;;;;13.90;95858.00;;;;8335688;28;20235;-79
2022/09/25 05:08:02;;;;;;;453.85;49.78;;;;;13.90;95863.00;;;;8343150;28;20237;-79
2022/09/25 05:12:06;;;;;;;491.92;51.58;;;;;13.80;95863.00;;;;8335154;28;20232;-79
2022/09/25 05:16:09;;;;;;;466.33;50.28;;;;;13.80;95859.00;;;;8330143;28;20722;-79
2022/09/25 05:20:15;;;;;;;413.45;44.75;;;;;13.70;95861.00;;;;8341301;28;20715;-78
2022/09/25 05:24:18;;;;;;;472.77;49.15;;;;;13.70;95856.00;;;;8317827;28;20283;-79
2022/09/25 05:28:22;;;;;;;578.40;51.60;;;;;13.70;95863.00;;;;8325468;28;20239;-79
2022/09/25 05:32:25;;;;;;;570.78;51.58;;;;;13.60;95858.00;;;;8338493;28;21007;-77
2022/09/25 05:36:30;;;;;;;407.13;44.50;;;;;13.60;95858.00;;;;8337618;28;20233;-81
2022/09/25 05:40:33;;;;;;;506.83;48.17;;;;;13.70;95862.00;;;;8339438;28;20231;-80
2022/09/25 05:44:38;;;;;;;475.75;47.20;;;;;13.70;95861.00;;;;8347198;28;20316;-79
2022/09/25 05:48:41;;;;;;;483.42;47.83;;;;;13.80;95871.00;;;;8354396;28;20275;-78
2022/09/25 05:52:55;;;;;;;330.70;42.13;;;;;13.90;95865.00;;;;8343041;28;20293;-79
2022/09/25 05:56:58;;;;;;;479.27;45.88;;;;;14.00;95870.00;;;;8328534;28;20231;-79
2022/09/25 06:21:54;;;;;;;409.50;44.95;;;;;14.10;95868.00;;;;2905245;26;20319;-74
2022/09/25 06:26:06;;;;;;;427.60;47.25;;;;;14.20;95877.00;;;;8336380;28;20227;-74
2022/09/25 06:30:15;;;;;;;395.45;43.28;;;;;14.30;95873.00;;;;8340449;28;20236;-75
2022/09/25 06:34:26;;;;;;;638.17;56.00;;;;;14.40;95870.00;;;;8348199;28;20255;-75
2022/09/25 06:38:38;;;;;;;502.20;49.00;;;;;14.50;95857.00;;;;8349348;28;20246;-75
2022/09/25 06:42:51;;;;;;;830.20;63.20;;;;;14.60;95850.00;;;;8345593;28;20221;-75
2022/09/25 06:46:54;;;;;;;588.72;52.78;;;;;14.60;95853.00;;;;8349260;28;20282;-75
2022/09/25 06:51:07;;;;;;;1002.72;73.05;;;;;14.60;95846.00;;;;8342999;28;20638;-72
2022/09/25 06:55:18;;;;;;;474.05;55.17;;;;;14.80;95858.00;;;;8341618;28;20279;-73
2022/09/25 06:59:28;;;;;;;596.30;58.45;;;;;14.80;95850.00;;;;8331390;28;20278;-71
2022/09/25 07:03:48;;;;;;;524.10;53.42;;;;;14.80;95860.00;;;;8344239;28;20227;-73
2022/09/25 07:07:58;;;;;;;397.60;50.65;;;;;15.00;95866.00;;;;8341208;28;20225;-72
2022/09/25 07:12:10;;;;;;;320.55;47.97;;;;;15.10;95864.00;;;;8345667;28;20228;-73
2022/09/25 07:16:20;;;;;;;254.73;44.25;;;;;15.20;95865.00;;;;8343401;28;20229;-73
2022/09/25 07:20:31;;;;;;;206.32;42.60;;;;;15.20;95871.00;;;;8346554;28;20259;-72
2022/09/25 07:24:47;;;;;;;182.27;40.58;;;;;15.40;95871.00;;;;8333253;28;20232;-70
2022/09/25 07:28:59;;;;;;;190.50;38.63;;;;;15.60;95861.00;;;;8339136;28;20224;-69
2022/09/25 07:33:09;;;;;;;164.45;36.45;;;;;15.70;95859.00;;;;8341334;28;20258;-74
2022/09/25 07:37:19;;;;;;;224.95;40.33;;;;;15.70;95868.00;;;;8341793;28;20217;-69
2022/09/25 07:41:29;;;;;;;176.95;39.60;;;;;15.70;95867.00;;;;8341607;28;20291;-70
2022/09/25 07:45:42;;;;;;;164.65;39.17;;;;;15.70;95873.00;;;;8337216;28;20232;-68
2022/09/25 07:49:46;;;;;;;150.55;36.58;;;;;15.70;95881.00;;;;8336254;28;20227;-69
2022/09/25 07:53:56;;;;;;;144.57;35.88;;;;;15.60;95891.00;;;;8342859;28;20749;-69
2022/09/25 07:57:59;;;;;;;145.48;36.70;;;;;15.60;95886.00;;;;8348651;28;20228;-73
2022/09/25 08:02:10;;;;;;;150.63;37.30;;;;;15.50;95890.00;;;;8347294;28;20585;-69
2022/09/25 08:06:20;;;;;;;135.65;35.97;;;;;15.60;95883.00;;;;8344993;28;20302;-71
2022/09/25 08:10:31;;;;;;;131.20;45.13;;;;;15.50;95888.00;;;;8340731;28;20439;-71
2022/09/25 08:14:40;;;;;;;119.45;37.45;;;;;15.90;95889.00;;;;8346789;28;20666;-71
2022/09/25 08:18:53;;;;;;;106.80;34.25;;;;;15.90;95892.00;;;;8349428;28;20228;-69
2022/09/25 08:23:08;;;;;;;105.60;33.95;;;;;15.80;95890.00;;;;8340718;28;20236;-69
2022/09/25 08:27:11;;;;;;;107.50;39.75;;;;;15.70;95897.00;;;;8340835;28;20539;-72
2022/09/25 08:31:21;;;;;;;115.15;36.10;;;;;15.90;95900.00;;;;8345747;28;20221;-72
2022/09/25 08:35:33;;;;;;;104.00;34.20;;;;;15.90;95900.00;;;;8347556;28;20763;-73
2022/09/25 08:39:42;;;;;;;101.93;32.95;;;;;15.90;95900.00;;;;8346445;28;20232;-72
2022/09/25 08:43:58;;;;;;;97.15;32.17;;;;;15.90;95900.00;;;;8348593;28;20224;-74
2022/09/25 08:52:44;;;;;;;112.38;36.40;;;;;15.90;95888.00;;;;8343791;28;20747;-70
2022/09/25 08:56:56;;;;;;;122.63;36.03;;;;;15.90;95888.00;;;;8346332;28;20225;-74
2022/09/25 09:01:07;;;;;;;102.00;34.47;;;;;16.00;95886.00;;;;8321556;28;20239;-70
2022/09/25 09:05:17;;;;;;;102.50;34.75;;;;;16.00;95883.00;;;;8342709;28;20591;-73
2022/09/25 09:09:33;;;;;;;93.22;33.05;;;;;16.20;95887.00;;;;8346604;28;20712;-73
2022/09/25 09:13:48;;;;;;;89.70;33.67;;;;;16.40;95881.00;;;;8343660;28;20604;-71
2022/09/25 09:18:01;;;;;;;91.10;31.70;;;;;16.60;95875.00;;;;8337893;28;20228;-72
2022/09/25 09:22:12;;;;;;;79.47;30.83;;;;;16.70;95871.00;;;;8343918;28;20221;-73
2022/09/25 09:26:44;;;;;;;73.43;30.20;;;;;16.80;95873.00;;;;8376061;28;20235;-72
2022/09/25 09:31:02;;;;;;;71.05;28.05;;;;;17.00;95860.00;;;;8345583;28;20217;-71
2022/09/25 09:35:24;;;;;;;67.57;28.95;;;;;17.20;95870.00;;;;8344341;28;20251;-70
2022/09/25 09:39:40;;;;;;;65.70;28.60;;;;;17.50;95856.00;;;;8379674;28;20795;-71
2022/09/25 09:44:02;;;;;;;61.85;26.30;;;;;18.00;95851.00;;;;8370365;28;20232;-70
2022/09/25 09:48:18;;;;;;;47.00;22.25;;;;;18.60;95859.00;;;;8368920;28;20250;-72
2022/09/25 09:52:33;;;;;;;45.28;23.02;;;;;18.80;95852.00;;;;8374080;28;20224;-72
2022/09/25 09:56:47;;;;;;;41.88;21.60;;;;;18.90;95843.00;;;;8376078;28;20688;-71
2022/09/25 10:00:58;;;;;;;40.88;20.58;;;;;18.90;95847.00;;;;8378132;28;20232;-73
2022/09/25 10:05:31;;;;;;;34.10;18.40;;;;;19.00;95855.00;;;;8340184;28;20220;-72
2022/09/25 10:09:40;;;;;;;31.88;17.42;;;;;19.00;95851.00;;;;8347377;28;20239;-71
2022/09/25 10:13:50;;;;;;;35.13;18.60;;;;;19.10;95850.00;;;;8344151;28;20843;-70
2022/09/25 10:18:03;;;;;;;38.20;19.52;;;;;19.20;95851.00;;;;8344550;28;20225;-71
2022/09/25 10:22:16;;;;;;;36.25;18.88;;;;;19.40;95851.00;;;;8350690;28;20708;-72
2022/09/25 10:26:35;;;;;;;32.50;18.77;;;;;19.70;95845.00;;;;8374491;28;20227;-72
2022/09/25 10:30:47;;;;;;;38.47;20.05;;;;;20.00;95841.00;;;;8349019;28;20273;-72
2022/09/25 10:34:57;;;;;;;30.20;16.88;;;;;20.30;95841.00;;;;8351290;28;20266;-71
2022/09/25 10:39:02;;;;;;;23.48;14.43;;;;;20.50;95831.00;;;;8341805;28;20259;-71
2022/09/25 10:43:32;;;;;;;33.15;20.15;;;;;20.70;95831.00;;;;8374231;28;20240;-71
2022/09/25 10:52:08;;;;;;;20.38;13.65;;;;;21.50;95841.00;;;;8378957;28;20278;-70
2022/09/25 10:56:21;;;;;;;19.88;12.75;;;;;21.70;95841.00;;;;8378407;28;20235;-71
2022/09/25 11:00:32;;;;;;;19.00;13.35;;;;;21.70;95844.00;;;;8375948;28;20235;-70
2022/09/25 11:04:43;;;;;;;18.67;12.32;;;;;21.30;95843.00;;;;8380977;28;20227;-70
2022/09/25 11:08:54;;;;;;;19.10;11.82;;;;;21.20;95846.00;;;;8376911;28;20228;-69
2022/09/25 11:13:09;;;;;;;20.30;13.55;;;;;21.20;95845.00;;;;8375068;28;20227;-69
2022/09/25 11:17:32;;;;;;;22.88;13.90;;;;;21.10;95844.00;;;;8374140;28;20236;-69
2022/09/25 11:21:49;;;;;;;19.98;12.80;;;;;20.90;95841.00;;;;8366094;28;20284;-71
2022/09/25 11:26:12;;;;;;;21.00;13.38;;;;;20.70;95845.00;;;;8357997;28;20307;-70
2022/09/25 11:30:21;;;;;;;20.00;12.98;;;;;20.60;95850.00;;;;8362388;28;20243;-69
2022/09/25 11:34:47;;;;;;;19.60;13.73;;;;;20.40;95845.00;;;;8348287;28;20936;-70
2022/09/25 11:43:42;;;;;;;23.60;15.63;;;;;19.30;95836.00;;;;8368432;28;20235;-73
2022/09/25 11:48:05;;;;;;;22.60;15.35;;;;;19.20;95840.00;;;;8336046;28;20325;-74
2022/09/25 11:52:22;;;;;;;30.48;19.90;;;;;19.10;95841.00;;;;8345041;28;20228;-75
2022/09/25 11:56:42;;;;;;;20.90;13.43;;;;;19.30;95830.00;;;;8344818;28;20225;-75
2022/09/25 12:01:00;;;;;;;21.90;15.48;;;;;19.40;95829.00;;;;8331177;28;20224;-77
2022/09/25 12:05:22;;;;;;;20.88;13.60;;;;;19.50;95831.00;;;;8375772;28;20759;-77
2022/09/25 12:09:47;;;;;;;18.58;13.30;;;;;19.40;95820.00;;;;8374925;28;20215;-77
2022/09/25 12:14:03;;;;;;;16.95;11.98;;;;;19.40;95815.00;;;;8365892;28;20589;-79
2022/09/25 12:18:25;;;;;;;17.38;11.35;;;;;19.10;95812.00;;;;8350400;28;20808;-78
2022/09/25 12:22:53;;;;;;;17.05;11.90;;;;;19.10;95806.00;;;;8374632;28;20710;-76
2022/09/25 12:27:12;;;;;;;13.15;10.07;;;;;19.10;95800.00;;;;8357073;28;20256;-77
2022/09/25 12:31:28;;;;;;;13.90;9.88;;;;;19.20;95802.00;;;;8347730;28;20233;-76
2022/09/25 12:35:48;;;;;;;14.68;9.77;;;;;19.50;95802.00;;;;8340561;28;20228;-74
2022/09/25 12:40:01;;;;;;;17.45;11.90;;;;;19.60;95793.00;;;;8329270;28;20224;-74
2022/09/25 12:44:17;;;;;;;19.02;12.38;;;;;19.40;95790.00;;;;8341537;28;20682;-73
2022/09/25 12:48:31;;;;;;;23.48;15.60;;;;;19.50;95788.00;;;;8339618;28;20244;-74
2022/09/25 12:52:48;;;;;;;34.40;20.38;;;;;19.40;95785.00;;;;8327609;28;20679;-74
2022/09/25 12:57:01;;;;;;;24.90;15.68;;;;;19.40;95786.00;;;;8354603;28;20211;-74
2022/09/25 13:01:18;;;;;;;23.90;14.68;;;;;19.40;95774.00;;;;8376755;28;20231;-73
2022/09/25 13:05:34;;;;;;;25.08;16.20;;;;;19.10;95781.00;;;;8367379;28;20220;-74
2022/09/25 13:09:46;;;;;;;17.58;12.05;;;;;18.90;95777.00;;;;8358607;28;20274;-74
2022/09/25 13:13:57;;;;;;;20.77;13.65;;;;;18.90;95786.00;;;;8340799;28;20658;-74
2022/09/25 13:18:25;;;;;;;21.30;14.20;;;;;19.00;95777.00;;;;8339876;28;20225;-73
2022/09/25 13:22:41;;;;;;;25.67;15.35;;;;;19.10;95780.00;;;;8328556;28;20237;-72
2022/09/25 13:27:05;;;;;;;22.33;14.82;;;;;19.40;95781.00;;;;8305536;28;20228;-73
2022/09/25 13:31:22;;;;;;;23.52;16.13;;;;;19.50;95778.00;;;;8310270;28;20583;-75
2022/09/25 13:35:26;;;;;;;23.55;16.30;;;;;19.40;95767.00;;;;8313368;28;20232;-75
2022/09/25 13:44:36;;;;;;;23.60;15.60;;;;;19.20;95767.00;;;;8301174;28;20220;-76
2022/09/25 13:48:48;;;;;;;25.60;15.88;;;;;19.10;95761.00;;;;8284903;28;20232;-75
2022/09/25 13:53:22;;;;;;;22.92;15.88;;;;;19.00;95761.00;;;;8313293;28;20217;-76
2022/09/25 13:58:02;;;;;;;24.95;16.85;;;;;18.80;95754.00;;;;8307403;28;21294;-76
2022/09/25 14:02:46;;;;;;;28.17;18.17;;;;;18.70;95756.00;;;;8313661;28;20332;-76
2022/09/25 14:07:10;;;;;;;27.92;17.70;;;;;18.90;95758.00;;;;8172210;28;20235;-75
2022/09/25 14:11:26;;;;;;;26.42;17.95;;;;;18.90;95756.00;;;;8147365;28;20224;-76
2022/09/25 14:15:39;;;;;;;27.52;17.45;;;;;18.90;95756.00;;;;8162814;28;20255;-76
2022/09/25 14:19:47;;;;;;;27.90;17.42;;;;;18.80;95752.00;;;;8154006;28;20687;-77
2022/09/25 14:24:18;;;;;;;24.65;16.05;;;;;18.70;95755.00;;;;8206354;28;20230;-77
2022/09/25 14:28:30;;;;;;;21.25;15.25;;;;;18.80;95746.00;;;;8233208;28;20751;-77
2022/09/25 14:32:54;;;;;;;23.73;15.55;;;;;18.70;95746.00;;;;8238607;28;20321;-76
2022/09/25 14:37:19;;;;;;;21.80;15.27;;;;;18.40;95737.00;;;;8283217;28;20274;-77
2022/09/25 14:42:05;;;;;;;21.17;14.63;;;;;18.50;95736.00;;;;8333079;28;20944;-77
2022/09/25 14:46:18;;;;;;;24.20;15.18;;;;;18.60;95739.00;;;;8327798;28;20224;-78
2022/09/25 14:50:32;;;;;;;21.20;14.00;;;;;18.60;95740.00;;;;8336339;28;20224;-78
2022/09/25 14:54:46;;;;;;;24.10;14.98;;;;;18.60;95735.00;;;;8333447;28;20217;-77
2022/09/25 14:58:56;;;;;;;21.50;14.30;;;;;18.50;95734.00;;;;8335945;28;20251;-78
2022/09/25 15:03:12;;;;;;;27.70;15.60;;;;;18.30;95732.00;;;;8327787;28;20251;-79
2022/09/25 15:07:25;;;;;;;22.38;15.35;;;;;18.40;95734.00;;;;8340345;28;20282;-78
2022/09/25 15:11:44;;;;;;;20.90;14.05;;;;;18.40;95732.00;;;;8337151;28;20778;-77
2022/09/25 15:20:23;;;;;;;58.92;52.50;;;;;18.20;95727.00;;;;8302016;28;20702;-76
2022/09/25 15:24:29;;;;;;;36.75;25.38;;;;;18.00;95723.00;;;;8319332;28;20230;-76
2022/09/25 15:28:41;;;;;;;256.30;174.95;;;;;17.80;95731.00;;;;8315104;28;20560;-76
2022/09/25 15:32:55;;;;;;;117.78;71.22;;;;;17.80;95718.00;;;;8311119;28;20276;-76
2022/09/25 15:37:19;;;;;;;35.53;23.52;;;;;17.70;95709.00;;;;8306089;28;20237;-75
2022/09/25 15:41:29;;;;;;;39.53;27.10;;;;;17.70;95714.00;;;;8311560;28;20225;-76
2022/09/25 15:45:44;;;;;;;35.45;22.80;;;;;17.80;95717.00;;;;8316617;28;20271;-76
2022/09/25 15:49:55;;;;;;;29.25;19.35;;;;;17.80;95700.00;;;;8318881;28;20244;-76
2022/09/25 15:54:01;;;;;;;78.47;62.42;;;;;17.90;95706.00;;;;8302608;28;21074;-77
2022/09/25 15:58:14;;;;;;;162.95;129.10;;;;;17.90;95708.00;;;;8312032;28;20225;-77
2022/09/25 16:06:56;;;;;;;43.65;34.15;;;;;17.90;95715.00;;;;8296670;28;20264;-78
2022/09/25 16:11:21;;;;;;;32.92;24.35;;;;;17.80;95706.00;;;;8307052;28;20242;-78
2022/09/25 16:15:51;;;;;;;29.30;16.70;;;;;17.80;95710.00;;;;8313671;28;20222;-76
2022/09/25 16:20:05;;;;;;;43.15;27.55;;;;;17.80;95707.00;;;;8289536;28;20240;-76
2022/09/25 16:24:19;;;;;;;55.15;35.97;;;;;17.70;95710.00;;;;8344205;28;20240;-77
2022/09/25 16:28:32;;;;;;;25.55;15.48;;;;;17.70;95717.00;;;;8378546;28;20633;-78
2022/09/25 16:32:58;;;;;;;29.48;17.83;;;;;17.50;95714.00;;;;8378002;28;20223;-77
2022/09/25 16:37:20;;;;;;;82.47;48.97;;;;;17.40;95717.00;;;;8382477;28;20223;-78
2022/09/25 16:41:31;;;;;;;28.90;16.10;;;;;17.40;95720.00;;;;8380440;28;20289;-77
2022/09/25 16:45:57;;;;;;;22.55;13.93;;;;;17.30;95721.00;;;;8372627;28;20228;-76
2022/09/25 16:50:08;;;;;;;24.75;14.80;;;;;17.10;95719.00;;;;8374403;28;20732;-77
2022/09/25 16:54:21;;;;;;;23.30;14.23;;;;;17.00;95703.00;;;;8380087;28;20220;-77
2022/09/25 16:58:31;;;;;;;25.13;14.85;;;;;16.90;95702.00;;;;8374091;28;20273;-76
2022/09/25 17:02:43;;;;;;;27.15;15.30;;;;;16.90;95702.00;;;;8367329;28;20243;-76
2022/09/25 17:06:55;;;;;;;29.52;15.23;;;;;16.80;95708.00;;;;8373443;28;20239;-76
2022/09/25 17:10:58;;;;;;;27.63;16.02;;;;;16.60;95698.00;;;;8376172;28;20251;-77
2022/09/25 17:15:18;;;;;;;26.58;15.23;;;;;16.50;95703.00;;;;8377313;28;20229;-77
2022/09/25 17:19:28;;;;;;;28.95;16.25;;;;;16.30;95704.00;;;;8371088;28;20231;-76
2022/09/25 17:23:38;;;;;;;47.03;25.63;;;;;16.10;95707.00;;;;8373815;28;20227;-79
2022/09/25 17:27:54;;;;;;;35.40;22.10;;;;;15.90;95717.00;;;;8373959;28;20615;-77
2022/09/25 17:32:07;;;;;;;38.65;22.25;;;;;15.70;95726.00;;;;8376032;28;20657;-77
2022/09/25 17:36:17;;;;;;;26.52;15.18;;;;;15.50;95727.00;;;;8371152;28;20258;-77
2022/09/25 17:40:20;;;;;;;30.48;15.93;;;;;15.40;95716.00;;;;8379494;28;20230;-77
2022/09/25 17:44:30;;;;;;;36.88;17.98;;;;;15.20;95722.00;;;;8372276;28;20232;-76
2022/09/25 17:48:42;;;;;;;29.27;15.65;;;;;15.00;95711.00;;;;8368109;28;20224;-76
2022/09/25 17:52:45;;;;;;;34.97;17.42;;;;;14.80;95716.00;;;;8335847;28;20697;-78
2022/09/25 17:56:54;;;;;;;32.63;17.25;;;;;14.50;95708.00;;;;8373844;28;20798;-79
2022/09/25 18:01:11;;;;;;;38.00;18.08;;;;;14.30;95721.00;;;;8370026;28;20269;-76
2022/09/25 18:05:18;;;;;;;36.72;17.75;;;;;14.00;95718.00;;;;8366554;28;20354;-77
2022/09/25 18:09:27;;;;;;;37.13;19.38;;;;;13.80;95725.00;;;;8372660;28;20588;-80
2022/09/25 18:13:37;;;;;;;38.97;20.35;;;;;13.80;95731.00;;;;8393256;28;20231;-78
2022/09/25 18:17:43;;;;;;;45.10;21.13;;;;;13.70;95721.00;;;;8393231;28;20303;-82
2022/09/25 18:26:28;;;;;;;39.10;18.52;;;;;13.60;95724.00;;;;8326688;28;20225;-83
2022/09/25 18:30:36;;;;;;;46.50;20.45;;;;;13.70;95732.00;;;;8331829;28;20243;-81
2022/09/25 18:34:46;;;;;;;40.28;20.05;;;;;13.80;95738.00;;;;8333338;28;20220;-80
2022/09/25 18:38:57;;;;;;;49.33;20.70;;;;;13.80;95732.00;;;;8333917;28;20224;-79
2022/09/25 18:43:07;;;;;;;48.60;21.00;;;;;13.90;95736.00;;;;8333156;28;20237;-80
2022/09/25 18:47:17;;;;;;;34.33;17.10;;;;;13.90;95738.00;;;;8333452;28;20225;-80
2022/09/25 18:51:27;;;;;;;34.78;16.77;;;;;14.00;95732.00;;;;8332428;28;20222;-79
2022/09/25 18:55:41;;;;;;;34.67;17.50;;;;;14.00;95733.00;;;;8332843;28;20271;-80
2022/09/25 18:59:50;;;;;;;31.83;15.48;;;;;14.00;95737.00;;;;8332292;28;20593;-78
2022/09/25 19:03:53;;;;;;;38.17;16.60;;;;;14.00;95729.00;;;;8314344;28;20248;-79
2022/09/25 19:08:03;;;;;;;39.88;18.30;;;;;13.90;95731.00;;;;8314753;28;20221;-79
2022/09/25 19:12:16;;;;;;;38.42;17.80;;;;;13.90;95737.00;;;;8323442;28;20275;-80
2022/09/25 19:16:20;;;;;;;30.65;15.82;;;;;13.80;95743.00;;;;8331738;28;20237;-78
2022/09/25 19:20:33;;;;;;;35.97;17.13;;;;;13.90;95748.00;;;;8344239;28;20565;-77
2022/09/25 19:24:51;;;;;;;36.15;16.33;;;;;13.80;95744.00;;;;8371250;28;20219;-78
2022/09/25 19:29:04;;;;;;;39.05;18.42;;;;;13.80;95745.00;;;;8397847;28;20216;-77
2022/09/25 19:33:13;;;;;;;38.00;16.88;;;;;13.80;95748.00;;;;8396841;28;20219;-77
2022/09/25 19:37:17;;;;;;;32.88;15.93;;;;;13.90;95759.00;;;;8396783;28;20253;-78
2022/09/25 19:41:28;;;;;;;34.90;16.70;;;;;13.90;95756.00;;;;8394846;28;20227;-78
2022/09/25 19:45:38;;;;;;;35.50;16.88;;;;;13.90;95753.00;;;;8395905;28;20285;-78
2022/09/25 19:49:41;;;;;;;36.83;16.42;;;;;13.80;95755.00;;;;8395670;28;20220;-78
2022/09/25 19:53:53;;;;;;;36.47;16.45;;;;;13.90;95756.00;;;;8381577;28;20283;-80
2022/09/25 19:58:03;;;;;;;39.78;15.85;;;;;13.90;95759.00;;;;8395944;28;20274;-79
2022/09/25 20:02:14;;;;;;;40.92;16.50;;;;;13.90;95761.00;;;;8384453;28;20231;-78
2022/09/25 20:06:18;;;;;;;35.10;15.75;;;;;14.00;95754.00;;;;8396027;28;20260;-77
2022/09/25 20:10:29;;;;;;;33.00;15.30;;;;;14.00;95763.00;;;;8396707;28;20665;-77
2022/09/25 20:14:38;;;;;;;37.55;15.27;;;;;14.10;95759.00;;;;8396577;28;20215;-80
2022/09/25 20:18:51;;;;;;;40.22;16.63;;;;;14.20;95766.00;;;;8396194;28;20220;-80
2022/09/25 20:23:01;;;;;;;33.67;15.50;;;;;14.20;95762.00;;;;8395533;28;20296;-81
2022/09/25 20:27:18;;;;;;;35.88;16.42;;;;;14.20;95763.00;;;;8396029;28;20220;-80
2022/09/25 20:31:28;;;;;;;34.97;15.93;;;;;14.20;95763.00;;;;8395572;28;20219;-81
2022/09/25 20:35:33;;;;;;;36.80;17.42;;;;;14.20;95763.00;;;;8394667;28;20307;-80
2022/09/25 20:39:44;;;;;;;41.63;18.25;;;;;14.20;95761.00;;;;8394791;28;20224;-79
2022/09/25 20:43:55;;;;;;;37.00;17.08;;;;;14.20;95760.00;;;;8367603;28;20232;-79
2022/09/25 20:48:05;;;;;;;34.78;16.38;;;;;14.20;95753.00;;;;8394773;28;20232;-79
2022/09/25 20:52:16;;;;;;;34.50;14.93;;;;;14.20;95756.00;;;;8395688;28;20215;-81
2022/09/25 20:56:20;;;;;;;37.03;16.10;;;;;14.20;95741.00;;;;8394822;28;20273;-79
2022/09/25 21:00:31;;;;;;;35.75;14.82;;;;;14.10;95752.00;;;;8395076;28;20211;-79
2022/09/25 21:04:40;;;;;;;34.10;15.95;;;;;14.10;95745.00;;;;8395952;28;20644;-79
2022/09/25 21:08:53;;;;;;;32.55;15.38;;;;;14.10;95741.00;;;;8394970;28;20223;-77
2022/09/25 21:13:04;;;;;;;33.17;16.08;;;;;14.00;95747.00;;;;8395034;28;20297;-78
2022/09/25 21:17:07;;;;;;;37.00;17.58;;;;;14.00;95743.00;;;;8394993;28;20254;-79